Time;durP1;ratioP1;P1;durP2;ratioP2;P2;SDS_P1;SDS_P2;PMS_P1;PMS_P2;Temp;Humidity;BMP_temperature;BMP_pressure;BME280_temperature;BME280_humidity;BME280_pressure;Samples;Min_cycle;Max_cycle;Signal;HPM_P1;HPM_P2
2022/05/24 00:00:00;;;;;;;7.40;3.20;;;15.70;77.70;;;;;;5025374;28;20133;-69
2022/05/24 00:02:27;;;;;;;5.68;3.42;;;15.70;77.80;;;;;;5022510;28;20037;-68
2022/05/24 00:04:52;;;;;;;7.28;1.90;;;15.70;78.00;;;;;;5030504;28;20582;-69
2022/05/24 00:07:18;;;;;;;6.50;1.60;;;15.60;78.10;;;;;;5028295;28;20061;-69
2022/05/24 00:09:44;;;;;;;4.55;1.45;;;15.60;78.10;;;;;;5024627;28;20045;-68
2022/05/24 00:12:10;;;;;;;4.00;1.45;;;15.60;78.00;;;;;;5022256;28;20041;-68
2022/05/24 00:17:19;;;;;;;5.75;1.83;;;15.50;78.10;;;;;;5027962;28;20033;-68
2022/05/24 00:19:46;;;;;;;6.93;1.70;;;15.50;78.30;;;;;;5033013;28;20033;-68
2022/05/24 00:22:11;;;;;;;6.47;1.80;;;15.50;78.20;;;;;;5031027;28;20132;-68
2022/05/24 00:24:37;;;;;;;5.85;1.77;;;15.50;78.20;;;;;;5036875;28;20033;-68
2022/05/24 00:27:03;;;;;;;6.10;1.40;;;15.40;78.10;;;;;;5035574;28;20022;-68
2022/05/24 00:29:29;;;;;;;7.72;1.52;;;15.40;78.20;;;;;;5039323;28;20503;-68
2022/05/24 00:31:54;;;;;;;7.65;1.40;;;15.40;78.10;;;;;;5027837;28;20017;-69
2022/05/24 00:34:20;;;;;;;6.03;1.40;;;15.40;78.00;;;;;;5032425;28;20041;-68
2022/05/24 00:36:45;;;;;;;4.57;1.52;;;15.40;78.20;;;;;;5032083;28;20048;-68
2022/05/24 00:39:11;;;;;;;5.97;1.33;;;15.30;78.10;;;;;;5035814;28;20128;-68
2022/05/24 00:41:55;;;;;;;5.85;1.30;;;15.30;78.10;;;;;;5038299;28;20017;-69
2022/05/24 00:44:33;;;;;;;3.13;1.10;;;15.30;78.00;;;;;;5023230;28;20036;-68
2022/05/24 00:47:07;;;;;;;2.63;1.20;;;15.30;78.00;;;;;;5031127;28;20017;-68
2022/05/24 00:49:39;;;;;;;3.53;1.30;;;15.30;78.00;;;;;;5024949;28;20036;-68
2022/05/24 00:52:17;;;;;;;4.13;1.50;;;15.20;78.00;;;;;;5020926;28;20832;-69
2022/05/24 00:54:44;;;;;;;7.55;1.52;;;15.20;78.00;;;;;;5022122;28;20041;-69
2022/05/24 00:57:18;;;;;;;5.78;1.40;;;15.20;78.10;;;;;;5022798;28;20432;-68
2022/05/24 01:00:20;;;;;;;7.18;1.63;;;15.20;78.10;;;;;;5028420;28;20084;-68
2022/05/24 01:02:46;;;;;;;6.40;1.52;;;15.20;78.10;;;;;;5027500;28;20041;-69
2022/05/24 01:05:16;;;;;;;6.25;1.38;;;15.10;78.00;;;;;;5037266;28;20124;-68
2022/05/24 01:07:42;;;;;;;7.43;1.40;;;15.10;77.90;;;;;;5036138;28;20040;-68
2022/05/24 01:10:16;;;;;;;4.30;1.17;;;15.10;77.90;;;;;;5031080;28;20033;-69
2022/05/24 01:12:50;;;;;;;4.75;1.27;;;15.10;77.90;;;;;;5033604;28;20030;-68
2022/05/24 01:15:17;;;;;;;6.55;1.40;;;15.10;77.90;;;;;;5027971;28;20048;-68
2022/05/24 01:17:44;;;;;;;5.85;1.40;;;15.00;77.90;;;;;;5035138;28;20072;-68
2022/05/24 01:20:11;;;;;;;4.72;1.40;;;15.00;77.90;;;;;;5031885;28;20048;-68
2022/05/24 01:22:58;;;;;;;3.92;1.40;;;15.00;78.00;;;;;;5028995;28;20059;-68
2022/05/24 01:25:51;;;;;;;5.15;1.35;;;15.00;77.90;;;;;;5037889;28;20060;-68
2022/05/24 01:28:36;;;;;;;5.75;1.15;;;14.90;78.00;;;;;;5030545;28;20442;-67
2022/05/24 01:31:04;;;;;;;5.47;1.10;;;14.90;78.00;;;;;;5035518;28;20028;-69
2022/05/24 01:36:16;;;;;;;6.38;1.27;;;14.90;78.10;;;;;;5033029;28;20890;-68
2022/05/24 01:38:51;;;;;;;5.28;1.27;;;14.80;78.00;;;;;;5045179;28;20033;-68
2022/05/24 01:41:23;;;;;;;11.40;1.60;;;14.80;78.20;;;;;;5041406;28;20421;-69
2022/05/24 01:43:53;;;;;;;5.95;1.40;;;14.80;78.20;;;;;;5036679;28;20025;-68
2022/05/24 01:46:23;;;;;;;6.18;1.10;;;14.80;78.30;;;;;;5034309;28;20095;-68
2022/05/24 01:48:56;;;;;;;5.38;1.33;;;14.80;78.30;;;;;;5032786;28;20025;-68
2022/05/24 01:51:29;;;;;;;7.72;1.25;;;14.70;78.30;;;;;;5025212;28;20037;-68
2022/05/24 01:54:00;;;;;;;4.97;1.10;;;14.70;78.10;;;;;;5025595;28;20036;-68
2022/05/24 01:56:35;;;;;;;4.70;1.15;;;14.70;78.20;;;;;;5034260;28;20028;-69
2022/05/24 01:59:02;;;;;;;6.32;1.27;;;14.70;78.30;;;;;;5030991;28;20608;-68
2022/05/24 02:01:47;;;;;;;5.13;1.20;;;14.60;78.20;;;;;;5031695;28;20029;-69
2022/05/24 02:04:13;;;;;;;6.22;1.10;;;14.60;79.30;;;;;;5042069;28;20594;-68
2022/05/24 02:06:39;;;;;;;5.75;1.35;;;14.60;78.40;;;;;;5030260;28;20057;-69
2022/05/24 02:09:08;;;;;;;3.25;1.15;;;14.60;78.40;;;;;;5031984;28;20075;-68
2022/05/24 02:11:34;;;;;;;5.25;1.10;;;14.50;78.40;;;;;;5042441;28;20409;-68
2022/05/24 02:14:23;;;;;;;5.68;1.17;;;14.50;78.40;;;;;;5035985;28;20029;-68
2022/05/24 02:16:58;;;;;;;8.15;1.23;;;14.50;78.60;;;;;;5031803;28;20513;-69
2022/05/24 02:19:26;;;;;;;4.00;1.30;;;14.50;78.50;;;;;;5023970;28;20017;-69
2022/05/24 02:21:58;;;;;;;5.13;1.13;;;14.50;78.30;;;;;;5033442;28;20033;-68
2022/05/24 02:24:25;;;;;;;5.28;1.30;;;14.40;78.40;;;;;;5029174;28;20033;-68
2022/05/24 02:26:52;;;;;;;5.63;1.20;;;14.40;78.30;;;;;;5035250;28;20033;-68
2022/05/24 02:29:21;;;;;;;6.88;1.33;;;14.40;78.30;;;;;;5029718;28;20126;-69
2022/05/24 02:31:48;;;;;;;7.00;1.45;;;14.40;78.30;;;;;;5035158;28;20070;-68
2022/05/24 02:34:14;;;;;;;6.70;1.40;;;14.40;78.30;;;;;;5033202;28;20519;-69
2022/05/24 02:36:41;;;;;;;4.72;1.20;;;14.40;78.30;;;;;;5030116;28;20030;-69
2022/05/24 02:39:07;;;;;;;4.68;1.15;;;14.40;78.30;;;;;;5029840;28;20052;-68
2022/05/24 02:41:33;;;;;;;9.05;1.20;;;14.40;78.30;;;;;;5029449;28;20421;-69
2022/05/24 02:44:09;;;;;;;8.63;1.42;;;14.30;78.30;;;;;;5036580;28;20033;-68
2022/05/24 02:46:37;;;;;;;7.47;1.20;;;14.30;78.40;;;;;;5035764;28;20108;-69
2022/05/24 02:49:04;;;;;;;6.68;1.20;;;14.30;78.40;;;;;;5029194;28;20485;-68
2022/05/24 02:51:29;;;;;;;5.45;1.17;;;14.30;78.50;;;;;;5045286;28;20017;-68
2022/05/24 02:53:55;;;;;;;10.38;1.48;;;14.30;78.40;;;;;;5037202;28;20067;-69
2022/05/24 02:56:22;;;;;;;7.60;1.45;;;14.20;78.50;;;;;;5031799;28;20502;-68
2022/05/24 02:58:48;;;;;;;8.13;1.20;;;14.20;78.50;;;;;;5034106;28;20035;-68
2022/05/24 03:01:19;;;;;;;6.93;1.20;;;14.20;78.40;;;;;;5043543;28;20068;-68
2022/05/24 03:03:47;;;;;;;9.00;1.35;;;14.20;78.40;;;;;;5031835;28;20029;-68
2022/05/24 03:06:14;;;;;;;4.28;1.25;;;14.10;78.40;;;;;;5038493;28;20459;-68
2022/05/24 03:11:24;;;;;;;6.35;0.98;;;14.20;78.50;;;;;;5026980;28;20052;-69
2022/05/24 03:16:34;;;;;;;4.22;1.20;;;14.20;78.40;;;;;;5026704;28;20040;-68
2022/05/24 03:18:59;;;;;;;7.53;1.45;;;14.10;78.30;;;;;;5029348;28;20022;-68
2022/05/24 03:21:25;;;;;;;3.67;1.02;;;14.10;78.30;;;;;;5030026;28;20036;-68
2022/05/24 03:23:51;;;;;;;5.20;1.20;;;14.10;78.20;;;;;;5028803;28;20038;-69
2022/05/24 03:26:17;;;;;;;5.15;0.90;;;14.10;78.30;;;;;;5024704;28;20117;-68
2022/05/24 03:28:43;;;;;;;8.30;1.30;;;14.10;78.30;;;;;;5028596;28;20116;-68
2022/05/24 03:31:09;;;;;;;6.18;1.08;;;14.10;78.30;;;;;;5031519;28;20480;-68
2022/05/24 03:33:36;;;;;;;6.80;1.30;;;14.10;78.30;;;;;;5029570;28;20066;-68
2022/05/24 03:36:02;;;;;;;5.70;1.30;;;14.10;78.30;;;;;;5032951;28;20487;-68
2022/05/24 03:38:28;;;;;;;9.20;1.30;;;14.10;78.20;;;;;;5040427;28;20649;-68
2022/05/24 03:40:55;;;;;;;5.70;1.40;;;14.00;78.30;;;;;;5032354;28;20021;-68
2022/05/24 03:43:21;;;;;;;5.68;1.20;;;14.00;78.40;;;;;;5030454;28;20103;-68
2022/05/24 03:45:47;;;;;;;6.05;1.20;;;14.00;78.50;;;;;;5044317;28;20037;-69
2022/05/24 03:48:13;;;;;;;9.40;1.40;;;14.00;78.50;;;;;;5025628;28;20454;-68
2022/05/24 03:50:39;;;;;;;4.43;1.10;;;14.00;78.50;;;;;;5042784;28;20044;-69
2022/05/24 03:53:04;;;;;;;5.20;1.33;;;13.90;78.60;;;;;;5027538;28;20033;-68
2022/05/24 03:55:30;;;;;;;7.05;1.20;;;13.90;78.50;;;;;;5032308;28;20119;-68
2022/05/24 03:58:02;;;;;;;9.15;1.05;;;13.90;78.60;;;;;;5029165;28;20770;-68
2022/05/24 04:00:40;;;;;;;6.47;1.25;;;13.90;78.50;;;;;;5021795;28;20083;-68
2022/05/24 04:03:06;;;;;;;8.90;1.20;;;13.90;78.50;;;;;;5027559;28;20036;-68
2022/05/24 04:05:33;;;;;;;11.05;1.33;;;13.90;78.50;;;;;;5026884;28;20021;-68
2022/05/24 04:07:59;;;;;;;9.55;1.38;;;13.80;78.60;;;;;;5026590;28;20026;-68
2022/05/24 04:10:25;;;;;;;7.45;1.13;;;13.90;78.70;;;;;;5028703;28;20032;-68
2022/05/24 04:12:51;;;;;;;5.70;1.20;;;13.90;78.80;;;;;;5032783;28;20037;-69
2022/05/24 04:15:18;;;;;;;7.97;1.38;;;13.80;78.50;;;;;;5026921;28;20580;-68
2022/05/24 04:17:46;;;;;;;7.60;1.23;;;13.80;78.50;;;;;;5033770;28;20022;-68
2022/05/24 04:20:13;;;;;;;7.68;1.58;;;13.80;78.50;;;;;;5036236;28;20045;-68
2022/05/24 04:22:39;;;;;;;7.10;3.00;;;13.80;78.30;;;;;;5026923;28;20045;-68
2022/05/24 04:25:07;;;;;;;9.55;2.95;;;13.80;78.40;;;;;;5031098;28;20036;-68
2022/05/24 04:27:32;;;;;;;6.15;1.55;;;13.80;78.80;;;;;;5023086;28;20025;-68
2022/05/24 04:29:58;;;;;;;5.70;1.58;;;13.80;78.90;;;;;;5027858;28;20033;-68
2022/05/24 04:32:24;;;;;;;4.65;1.20;;;13.70;79.10;;;;;;5017613;28;20037;-68
2022/05/24 04:34:50;;;;;;;4.78;1.35;;;13.70;80.00;;;;;;5029873;28;20037;-68
2022/05/24 04:37:16;;;;;;;6.47;1.20;;;13.70;79.10;;;;;;5027786;28;20037;-68
2022/05/24 04:39:41;;;;;;;7.07;1.38;;;13.70;79.10;;;;;;5032388;28;20033;-68
2022/05/24 04:42:19;;;;;;;6.13;1.27;;;13.70;79.00;;;;;;5024194;28;20040;-68
2022/05/24 04:44:47;;;;;;;7.18;1.42;;;13.80;79.00;;;;;;5027989;28;20033;-68
2022/05/24 04:47:14;;;;;;;6.80;1.50;;;13.80;79.00;;;;;;5036936;28;20120;-68
2022/05/24 04:49:50;;;;;;;6.57;1.63;;;13.70;79.10;;;;;;5033631;28;20025;-67
2022/05/24 04:52:17;;;;;;;10.70;1.58;;;13.70;79.10;;;;;;5028103;28;20036;-67
2022/05/24 04:54:44;;;;;;;8.02;1.38;;;13.70;79.10;;;;;;5024706;28;20065;-67
2022/05/24 04:57:11;;;;;;;8.52;1.55;;;13.70;78.90;;;;;;5024549;28;20064;-67
2022/05/24 04:59:37;;;;;;;5.90;1.63;;;13.70;79.10;;;;;;5028533;28;20087;-67
2022/05/24 05:02:04;;;;;;;6.45;1.83;;;13.70;79.20;;;;;;5026368;28;20036;-67
2022/05/24 05:04:30;;;;;;;9.15;1.70;;;13.70;79.30;;;;;;5027207;28;20025;-68
2022/05/24 05:06:56;;;;;;;9.00;1.58;;;13.70;79.50;;;;;;5015630;28;20544;-68
2022/05/24 05:09:22;;;;;;;6.85;1.70;;;13.70;79.70;;;;;;5026217;28;20025;-67
2022/05/24 05:11:48;;;;;;;8.52;1.30;;;13.70;79.90;;;;;;5028912;28;20021;-67
2022/05/24 05:14:15;;;;;;;6.38;1.50;;;13.70;79.90;;;;;;5031313;28;20561;-67
2022/05/24 05:16:41;;;;;;;8.20;1.33;;;13.80;79.80;;;;;;5026087;28;20025;-67
2022/05/24 05:19:11;;;;;;;7.32;1.40;;;13.80;79.80;;;;;;5021916;28;20041;-67
2022/05/24 05:21:39;;;;;;;6.45;1.30;;;13.80;80.00;;;;;;5024473;28;20026;-67
2022/05/24 05:24:07;;;;;;;7.38;1.63;;;13.90;80.10;;;;;;5021941;28;20056;-68
2022/05/24 05:26:32;;;;;;;6.63;1.38;;;14.00;79.90;;;;;;5020707;28;20041;-68
2022/05/24 05:28:58;;;;;;;5.97;1.35;;;14.00;79.90;;;;;;5017570;28;20021;-67
2022/05/24 05:31:27;;;;;;;8.13;1.50;;;14.10;79.70;;;;;;5023250;28;20118;-67
2022/05/24 05:33:58;;;;;;;6.05;1.30;;;14.10;80.00;;;;;;5026085;28;20025;-68
2022/05/24 05:36:27;;;;;;;8.50;1.70;;;14.20;80.00;;;;;;5032091;28;20136;-67
2022/05/24 05:38:53;;;;;;;6.72;1.20;;;14.20;79.90;;;;;;5030406;28;20528;-68
2022/05/24 05:41:26;;;;;;;7.15;1.20;;;14.30;79.70;;;;;;5031113;28;20561;-68
2022/05/24 05:43:52;;;;;;;7.63;1.40;;;14.50;80.50;;;;;;5062154;28;20108;-68
2022/05/24 05:46:18;;;;;;;8.60;1.40;;;14.50;80.30;;;;;;5034815;28;20448;-67
2022/05/24 05:48:45;;;;;;;7.25;1.20;;;14.60;79.10;;;;;;5028754;28;20029;-68
2022/05/24 05:51:13;;;;;;;7.00;1.40;;;14.70;79.10;;;;;;5029334;28;20033;-68
2022/05/24 05:53:39;;;;;;;6.60;1.50;;;14.80;78.70;;;;;;5030791;28;20041;-68
2022/05/24 05:56:07;;;;;;;8.77;1.40;;;15.00;78.30;;;;;;5030359;28;20055;-68
2022/05/24 05:58:33;;;;;;;9.02;1.67;;;15.10;78.70;;;;;;5033100;28;20056;-68
2022/05/24 06:01:00;;;;;;;8.45;1.58;;;15.20;77.40;;;;;;5042182;28;20511;-68
2022/05/24 06:03:26;;;;;;;6.50;1.55;;;15.30;76.80;;;;;;5046575;28;20489;-68
2022/05/24 06:05:54;;;;;;;7.88;1.42;;;15.50;76.80;;;;;;5036869;28;20029;-68
2022/05/24 06:08:19;;;;;;;8.50;1.50;;;15.60;76.30;;;;;;5040149;28;20108;-68
2022/05/24 06:10:45;;;;;;;8.30;1.30;;;15.80;75.50;;;;;;5039245;28;20104;-68
2022/05/24 06:13:11;;;;;;;6.72;1.20;;;15.90;74.70;;;;;;5036063;28;20033;-68
2022/05/24 06:15:37;;;;;;;5.78;1.25;;;16.10;74.00;;;;;;5029529;28;20037;-68
2022/05/24 06:18:04;;;;;;;5.30;1.20;;;16.20;73.20;;;;;;5047010;28;20037;-68
2022/05/24 06:20:32;;;;;;;7.47;1.40;;;16.40;73.10;;;;;;5033214;28;20029;-68
2022/05/24 06:22:58;;;;;;;8.80;1.83;;;16.50;72.80;;;;;;5030292;28;20038;-67
2022/05/24 06:25:28;;;;;;;10.90;2.38;;;16.70;71.80;;;;;;5032521;28;20033;-68
2022/05/24 06:27:55;;;;;;;12.15;1.25;;;16.90;70.70;;;;;;5031285;28;20021;-68
2022/05/24 06:30:22;;;;;;;7.40;1.10;;;17.00;70.90;;;;;;5045707;28;20314;-68
2022/05/24 06:32:48;;;;;;;5.90;1.10;;;17.10;70.00;;;;;;5033137;28;20104;-68
2022/05/24 06:35:14;;;;;;;9.55;1.30;;;17.30;68.40;;;;;;5035176;28;20042;-68
2022/05/24 06:37:43;;;;;;;10.90;1.52;;;17.50;68.00;;;;;;5034315;28;20021;-68
2022/05/24 06:40:11;;;;;;;7.13;1.30;;;17.90;66.90;;;;;;5035309;28;20076;-69
2022/05/24 06:42:37;;;;;;;7.93;1.15;;;18.60;63.50;;;;;;5029384;28;20025;-68
2022/05/24 06:45:04;;;;;;;10.68;1.33;;;19.40;60.50;;;;;;5045866;28;20611;-69
2022/05/24 06:47:30;;;;;;;10.57;2.10;;;20.30;57.60;;;;;;5029911;28;20113;-69
2022/05/24 06:49:56;;;;;;;11.23;1.77;;;21.30;53.10;;;;;;5036616;28;20068;-69
2022/05/24 06:52:22;;;;;;;7.30;1.10;;;22.10;50.40;;;;;;5040402;28;20496;-68
2022/05/24 06:54:48;;;;;;;5.60;1.30;;;22.80;47.80;;;;;;5033949;28;20034;-69
2022/05/24 06:57:14;;;;;;;11.43;1.48;;;23.20;46.50;;;;;;5045510;28;20549;-69
2022/05/24 07:02:26;;;;;;;11.90;2.25;;;23.80;43.80;;;;;;5037074;28;20103;-69
2022/05/24 07:05:04;;;;;;;11.05;1.40;;;24.30;42.50;;;;;;5034762;28;20481;-69
2022/05/24 07:07:32;;;;;;;8.85;1.25;;;24.60;42.00;;;;;;5032475;28;20028;-69
2022/05/24 07:09:59;;;;;;;7.28;1.30;;;25.10;41.00;;;;;;5037180;28;20056;-69
2022/05/24 07:12:25;;;;;;;9.25;1.30;;;25.40;40.00;;;;;;5030175;28;20121;-68
2022/05/24 07:14:51;;;;;;;8.63;1.25;;;25.70;39.50;;;;;;5030293;28;20037;-68
2022/05/24 07:17:18;;;;;;;10.98;1.40;;;26.00;38.90;;;;;;5038740;28;20033;-69
2022/05/24 07:19:46;;;;;;;8.52;1.38;;;26.20;38.10;;;;;;5039825;28;20533;-68
2022/05/24 07:22:12;;;;;;;9.32;1.38;;;26.00;38.10;;;;;;5039659;28;20029;-68
2022/05/24 07:24:38;;;;;;;12.48;1.42;;;25.70;39.10;;;;;;5031598;28;20060;-68
2022/05/24 07:27:07;;;;;;;7.13;1.30;;;24.40;42.60;;;;;;5045712;28;20472;-69
2022/05/24 07:29:35;;;;;;;7.65;1.73;;;24.10;42.90;;;;;;5042712;28;20044;-68
2022/05/24 07:32:02;;;;;;;10.75;1.30;;;23.80;44.00;;;;;;5035997;28;20501;-68
2022/05/24 07:34:28;;;;;;;8.15;1.20;;;23.10;45.50;;;;;;5034613;28;20029;-68
2022/05/24 07:36:54;;;;;;;8.10;1.55;;;22.60;47.20;;;;;;5028153;28;20021;-68
2022/05/24 07:39:19;;;;;;;7.53;1.60;;;22.40;47.60;;;;;;5025308;28;20029;-68
2022/05/24 07:47:14;;;;;;;8.02;1.10;;;22.40;48.90;;;;;;5036846;28;20526;-68
2022/05/24 07:49:39;;;;;;;10.07;1.10;;;22.40;48.50;;;;;;5039608;28;20048;-67
2022/05/24 07:52:06;;;;;;;8.02;1.30;;;22.40;48.40;;;;;;5039211;28;20025;-68
2022/05/24 07:54:33;;;;;;;7.78;1.08;;;22.40;49.00;;;;;;5041453;28;20044;-68
2022/05/24 07:56:59;;;;;;;7.15;1.20;;;22.30;49.20;;;;;;5041685;28;20017;-67
2022/05/24 07:59:25;;;;;;;9.57;1.33;;;22.30;49.70;;;;;;5033006;28;20032;-68
2022/05/24 08:01:50;;;;;;;9.68;1.38;;;22.30;48.80;;;;;;5034777;28;20056;-68
2022/05/24 08:04:16;;;;;;;8.25;1.25;;;22.40;48.80;;;;;;5042555;28;20809;-68
2022/05/24 08:06:42;;;;;;;6.95;1.30;;;22.50;48.10;;;;;;5027641;28;20027;-68
2022/05/24 08:09:08;;;;;;;6.50;1.05;;;22.40;48.00;;;;;;5039014;28;20029;-68
2022/05/24 08:11:33;;;;;;;8.18;0.90;;;22.40;47.90;;;;;;5040494;28;20063;-68
2022/05/24 08:14:02;;;;;;;7.18;1.17;;;22.50;47.60;;;;;;5039082;28;20074;-68
2022/05/24 08:16:29;;;;;;;7.10;1.10;;;22.60;46.20;;;;;;5039169;28;20028;-68
2022/05/24 08:18:55;;;;;;;6.18;1.00;;;22.70;47.30;;;;;;5040559;28;20018;-68
2022/05/24 08:21:21;;;;;;;7.18;1.13;;;22.70;47.60;;;;;;5043639;28;20064;-68
2022/05/24 08:23:46;;;;;;;6.22;1.02;;;22.60;47.80;;;;;;5043262;28;20409;-67
2022/05/24 08:26:13;;;;;;;9.05;1.63;;;22.50;47.60;;;;;;5039140;28;20056;-68
2022/05/24 08:28:43;;;;;;;6.78;1.02;;;22.50;48.70;;;;;;5039298;28;20499;-68
2022/05/24 08:31:09;;;;;;;6.90;0.98;;;22.50;47.90;;;;;;5038921;28;20065;-67
2022/05/24 08:33:35;;;;;;;5.55;0.88;;;22.60;47.50;;;;;;5044951;28;20127;-68
2022/05/24 08:36:02;;;;;;;8.65;0.90;;;22.80;46.10;;;;;;5032847;28;20846;-67
2022/05/24 08:38:28;;;;;;;6.72;0.98;;;22.90;46.20;;;;;;5038156;28;20036;-68
2022/05/24 08:40:59;;;;;;;5.82;0.88;;;23.20;46.00;;;;;;5034297;28;20082;-68
2022/05/24 08:43:39;;;;;;;6.85;0.82;;;23.40;44.80;;;;;;5038847;28;20029;-68
2022/05/24 08:49:07;;;;;;;8.55;0.90;;;23.40;43.40;;;;;;5028666;28;20060;-69
2022/05/24 08:51:41;;;;;;;4.00;0.82;;;23.60;43.30;;;;;;5011837;28;20025;-69
2022/05/24 08:54:12;;;;;;;4.78;0.93;;;23.30;43.50;;;;;;5044035;28;20037;-69
2022/05/24 08:56:48;;;;;;;5.55;1.00;;;23.40;43.80;;;;;;5035117;28;20616;-68
2022/05/24 08:59:34;;;;;;;4.60;0.80;;;23.50;43.80;;;;;;5037188;28;20029;-69
2022/05/24 09:02:01;;;;;;;7.28;1.10;;;23.80;43.90;;;;;;5038508;28;20025;-68
2022/05/24 09:04:28;;;;;;;4.88;0.80;;;24.10;43.10;;;;;;5038560;28;20182;-69
2022/05/24 09:07:08;;;;;;;5.45;0.90;;;24.20;42.20;;;;;;5040032;28;20033;-69
2022/05/24 09:09:51;;;;;;;6.70;0.90;;;24.50;40.60;;;;;;5017276;28;20025;-69
2022/05/24 09:12:37;;;;;;;6.47;0.80;;;24.80;39.40;;;;;;5043335;28;20108;-69
2022/05/24 09:15:23;;;;;;;5.45;0.90;;;25.20;38.80;;;;;;5029338;28;20048;-69
2022/05/24 09:18:20;;;;;;;6.22;0.80;;;25.10;37.70;;;;;;5034023;28;20029;-69
2022/05/24 09:20:46;;;;;;;6.18;0.90;;;24.60;39.40;;;;;;5035713;28;20025;-69
2022/05/24 09:23:33;;;;;;;5.35;1.00;;;24.10;39.90;;;;;;5040073;28;20057;-69
2022/05/24 09:26:09;;;;;;;6.72;1.00;;;23.60;40.20;;;;;;5042131;28;20051;-69
2022/05/24 09:28:57;;;;;;;6.00;0.90;;;23.10;41.60;;;;;;5042050;28;20142;-68
2022/05/24 09:31:49;;;;;;;7.20;0.90;;;22.80;42.60;;;;;;5042399;28;20039;-68
2022/05/24 09:34:18;;;;;;;5.45;0.80;;;22.50;42.80;;;;;;5045436;28;20060;-69
2022/05/24 09:36:56;;;;;;;5.35;1.02;;;22.20;44.10;;;;;;5030152;28;20109;-68
2022/05/24 09:39:26;;;;;;;6.30;1.00;;;21.90;44.90;;;;;;5021127;28;20107;-69
2022/05/24 09:41:55;;;;;;;5.90;0.90;;;21.70;46.10;;;;;;5034708;28;20488;-68
2022/05/24 09:44:22;;;;;;;6.00;1.02;;;21.60;46.80;;;;;;5039460;28;20039;-68
2022/05/24 09:46:47;;;;;;;7.45;1.05;;;21.70;46.80;;;;;;5036409;28;20025;-68
2022/05/24 09:49:31;;;;;;;6.70;1.05;;;21.80;45.30;;;;;;5041933;28;20036;-68
2022/05/24 09:52:11;;;;;;;4.97;0.90;;;21.80;44.70;;;;;;5042912;28;20021;-68
2022/05/24 09:54:57;;;;;;;6.82;0.90;;;21.80;44.50;;;;;;5030457;28;20045;-69
2022/05/24 09:57:26;;;;;;;5.18;0.93;;;22.10;44.60;;;;;;5046551;28;20037;-69
2022/05/24 10:00:04;;;;;;;5.35;0.98;;;23.10;44.30;;;;;;5031575;28;20029;-69
2022/05/24 10:02:39;;;;;;;6.20;1.00;;;23.50;40.20;;;;;;5035491;28;20037;-69
2022/05/24 10:05:20;;;;;;;5.70;0.82;;;23.30;40.90;;;;;;5036310;28;20021;-68
2022/05/24 10:08:14;;;;;;;5.25;0.80;;;23.20;41.20;;;;;;5035288;28;20086;-69
2022/05/24 10:10:46;;;;;;;6.30;0.90;;;23.30;41.60;;;;;;5036799;28;20024;-69
2022/05/24 10:13:39;;;;;;;7.15;1.10;;;23.20;41.70;;;;;;5044803;28;20032;-69
2022/05/24 10:16:22;;;;;;;6.90;1.15;;;22.90;41.60;;;;;;5034555;28;20039;-68
2022/05/24 10:18:59;;;;;;;7.55;1.10;;;22.70;42.20;;;;;;5030161;28;20104;-68
2022/05/24 10:21:38;;;;;;;9.32;1.15;;;22.70;41.70;;;;;;5030545;28;20048;-69
2022/05/24 10:24:15;;;;;;;7.07;1.00;;;22.60;42.40;;;;;;5043314;28;20072;-69
2022/05/24 10:27:01;;;;;;;7.03;1.08;;;22.70;43.30;;;;;;5044478;28;20427;-68
2022/05/24 10:29:47;;;;;;;5.15;0.80;;;22.80;41.90;;;;;;5033741;28;20116;-68
2022/05/24 10:38:47;;;;;;;5.13;0.90;;;25.20;34.60;;;;;;5011618;28;20417;-68
2022/05/24 10:41:19;;;;;;;5.85;0.80;;;27.00;33.30;;;;;;5009260;28;20454;-68
2022/05/24 10:43:50;;;;;;;5.75;0.90;;;28.30;31.30;;;;;;5011547;28;20061;-69
2022/05/24 10:46:22;;;;;;;4.53;0.70;;;29.40;28.80;;;;;;5011943;28;20034;-68
2022/05/24 10:48:57;;;;;;;7.22;0.80;;;30.20;27.50;;;;;;5009326;28;20061;-69
2022/05/24 10:51:31;;;;;;;7.60;1.00;;;30.10;26.80;;;;;;5008025;28;20038;-68
2022/05/24 10:54:07;;;;;;;4.70;0.85;;;30.80;26.30;;;;;;5012928;28;20030;-68
2022/05/24 10:56:48;;;;;;;5.90;1.00;;;30.40;26.30;;;;;;5010639;28;20092;-68
2022/05/24 10:59:36;;;;;;;7.10;1.00;;;30.00;26.40;;;;;;5011535;28;20026;-68
2022/05/24 11:02:33;;;;;;;5.60;0.85;;;28.40;28.60;;;;;;5011041;28;20157;-68
2022/05/24 11:05:20;;;;;;;5.93;1.02;;;28.00;30.00;;;;;;5011059;28;20088;-68
2022/05/24 11:07:50;;;;;;;3.85;0.80;;;28.40;29.80;;;;;;5011086;28;20061;-68
2022/05/24 11:10:30;;;;;;;5.63;0.90;;;29.00;29.40;;;;;;5009685;28;20030;-68
2022/05/24 11:12:58;;;;;;;;;;;31.00;26.60;;;;;;5022812;28;20227;-69
2022/05/24 11:15:33;;;;;;;5.95;0.90;;;32.60;25.80;;;;;;5021207;28;19927;-69
2022/05/24 11:18:03;;;;;;;5.20;0.90;;;33.20;25.00;;;;;;5042084;28;20443;-68
2022/05/24 11:20:35;;;;;;;5.13;0.80;;;31.40;26.60;;;;;;5041155;28;20040;-68
2022/05/24 11:23:25;;;;;;;5.03;0.77;;;32.60;25.00;;;;;;5039512;28;20041;-69
2022/05/24 11:26:14;;;;;;;5.70;0.90;;;34.00;24.70;;;;;;5040171;28;20029;-68
2022/05/24 11:28:51;;;;;;;4.78;0.90;;;33.60;24.30;;;;;;5039861;28;20045;-68
2022/05/24 11:31:37;;;;;;;5.25;0.80;;;32.30;26.30;;;;;;5039858;28;20037;-68
2022/05/24 11:34:18;;;;;;;4.20;0.82;;;31.70;26.10;;;;;;5043050;28;20029;-68
2022/05/24 11:37:14;;;;;;;4.15;0.80;;;30.10;27.80;;;;;;5017905;28;20025;-68
2022/05/24 11:39:44;;;;;;;5.40;0.90;;;28.70;29.10;;;;;;5042922;28;20457;-67
2022/05/24 11:42:18;;;;;;;5.05;0.90;;;27.70;30.00;;;;;;5042654;28;20032;-68
2022/05/24 11:44:44;;;;;;;4.53;0.70;;;26.90;32.00;;;;;;5040396;28;20033;-68
2022/05/24 11:47:37;;;;;;;6.13;0.88;;;27.90;30.00;;;;;;5030878;28;20512;-68
2022/05/24 11:50:32;;;;;;;8.10;1.00;;;27.90;30.40;;;;;;5034854;28;20020;-68
2022/05/24 11:53:21;;;;;;;5.65;0.82;;;27.20;32.50;;;;;;5033414;28;20101;-68
2022/05/24 11:55:53;;;;;;;6.00;0.90;;;26.40;33.90;;;;;;5033780;28;20064;-68
2022/05/24 11:58:22;;;;;;;5.63;0.90;;;25.90;35.50;;;;;;5036185;28;20401;-68
2022/05/24 12:01:10;;;;;;;6.32;1.10;;;25.60;35.70;;;;;;5028511;28;20459;-68
2022/05/24 12:09:23;;;;;;;2.92;0.60;;;24.40;36.80;;;;;;5038428;28;20048;-68
2022/05/24 12:12:19;;;;;;;3.15;0.57;;;24.10;37.20;;;;;;5043883;28;20052;-68
2022/05/24 12:14:45;;;;;;;3.15;0.50;;;23.80;37.80;;;;;;5043429;28;20036;-68
2022/05/24 12:17:11;;;;;;;2.95;0.60;;;23.50;38.40;;;;;;5038917;28;20052;-68
2022/05/24 12:19:42;;;;;;;4.45;0.63;;;24.60;35.90;;;;;;5038908;28;20063;-68
2022/05/24 12:22:11;;;;;;;3.28;0.80;;;27.80;30.60;;;;;;5039221;28;20023;-68
2022/05/24 12:24:36;;;;;;;3.17;0.77;;;30.10;27.80;;;;;;5039262;28;20048;-68
2022/05/24 12:27:49;;;;;;;4.85;0.70;;;30.60;27.00;;;;;;5043239;28;20025;-68
2022/05/24 12:30:33;;;;;;;3.97;0.70;;;29.10;29.40;;;;;;5041946;28;20404;-68
2022/05/24 12:33:18;;;;;;;5.13;0.77;;;27.60;30.40;;;;;;5028692;28;20501;-68
2022/05/24 12:36:21;;;;;;;2.03;0.55;;;26.70;31.50;;;;;;5035135;28;20056;-68
2022/05/24 12:39:08;;;;;;;5.80;0.70;;;25.90;33.00;;;;;;5033380;28;20021;-68
2022/05/24 12:41:52;;;;;;;4.38;0.70;;;25.40;33.70;;;;;;5040516;28;20403;-68
2022/05/24 12:44:22;;;;;;;3.70;0.60;;;26.50;31.50;;;;;;5039124;28;20087;-68
2022/05/24 12:47:05;;;;;;;3.38;0.52;;;26.10;32.50;;;;;;5038322;28;20395;-68
2022/05/24 12:49:52;;;;;;;5.97;0.90;;;27.60;30.30;;;;;;5035096;28;20021;-69
2022/05/24 12:52:28;;;;;;;3.08;0.52;;;29.90;27.50;;;;;;5039439;28;20374;-68
2022/05/24 12:54:59;;;;;;;3.50;0.70;;;31.80;25.40;;;;;;5044219;28;20030;-69
2022/05/24 12:57:39;;;;;;;4.05;0.70;;;32.90;24.90;;;;;;5047667;28;20026;-68
2022/05/24 13:00:22;;;;;;;4.43;0.77;;;32.20;25.20;;;;;;5044915;28;20085;-69
2022/05/24 13:02:49;;;;;;;3.60;0.60;;;32.10;25.10;;;;;;5036176;28;20033;-68
2022/05/24 13:05:23;;;;;;;4.72;0.60;;;30.60;26.90;;;;;;5028880;28;20037;-68
2022/05/24 13:07:53;;;;;;;3.50;0.65;;;29.30;27.70;;;;;;5037187;28;20025;-68
2022/05/24 13:10:19;;;;;;;;;;;28.20;29.10;;;;;;5036894;28;20060;-68
2022/05/24 13:12:49;;;;;;;4.78;0.85;;;27.50;30.20;;;;;;5043433;28;19980;-68
2022/05/24 13:15:19;;;;;;;5.30;0.68;;;26.90;31.10;;;;;;5036459;28;20044;-68
2022/05/24 13:17:47;;;;;;;3.58;0.75;;;26.30;32.00;;;;;;5046369;28;20025;-68
2022/05/24 13:20:19;;;;;;;4.78;0.60;;;25.80;32.90;;;;;;5040578;28;20484;-68
2022/05/24 13:23:02;;;;;;;3.78;0.60;;;25.50;33.70;;;;;;5042340;28;20512;-68
2022/05/24 13:25:53;;;;;;;5.05;0.80;;;25.10;34.00;;;;;;5043101;28;20024;-68
2022/05/24 13:28:38;;;;;;;;;;;24.70;34.80;;;;;;5040161;28;20045;-67
2022/05/24 13:34:17;;;;;;;;;;;24.20;35.90;;;;;;5026256;28;20102;-68
2022/05/24 13:37:01;;;;;;;4.10;0.88;;;24.10;36.20;;;;;;5016943;28;19974;-68
2022/05/24 13:39:53;;;;;;;4.07;0.60;;;24.60;36.10;;;;;;5038964;28;20435;-68
2022/05/24 13:42:30;;;;;;;2.17;0.60;;;25.30;34.90;;;;;;5029558;28;20025;-68
2022/05/24 13:45:22;;;;;;;3.17;0.70;;;25.80;34.00;;;;;;5033426;28;20475;-68
2022/05/24 13:47:58;;;;;;;6.78;0.85;;;26.20;33.10;;;;;;5035456;28;20489;-67